Newport News Williamsburg International Airport
KPHF : now visible

Airfield :











YOU CAN JOIN US ON...

 
LOGIN :

Register | Disclaimer

   EN    FR    IT 

 









Legend :    VFR   Marginal VFR   IFR   Intensive IFR   Very Intensive IFR
Visi :
Ceiling :
>= 8 km
>= 3000ft
5 to 8 km
1000 to 3000 ft
1500m to 5 km
500 to 1000 ft
800 to 1500m
200 to 500 ft
< 800m
< 200 ft
Symbols :   Thunderstorms  Fog  Heavy snow  Heavy precipitations  Wind > 20 kt






- Airport Elevation : 42 ft
- IATA code : PHF


KPHF - Newport News Williamsburg International

CURRENT METAR :
  • 162254Z 06005KT 10SM FEW047 23/19 A2995 RMK AO2 SLP141 T02330189

EXPIRED METARs :
  • 162154Z 06010KT 10SM FEW035 SCT047 25/18 A2995 RMK AO2 SLP141 T02500183
  • 162054Z 08009KT 10SM CLR 25/18 A2995 RMK AO2 SLP141 T02500183 58005

TAF KPHF
Valid from the 16 at 22:00 until the 17 at 18:00 UTC


162143Z 1622/1718 07007KT P6SM SCT100
FM171200 03008KT P6SM SCT100
KZDC FIR / North America



MET'MAP, your aeronautical weather chart ! - Copyright ORBIFLY December 2007 - Disclaimer

ORBIFLY MET'MAP TEAM :

Programming & Development : Alexandra Zaïnal
Original concept : Baudouin d'Aumeries
Technical & hardware support : Manuel Goepfert
Assistance : Marc-Olivier Méhu




SOURCES & CREDITS :

   NOAA       Earth
Advisory